sensor_id;sensor_type;location;lat;lon;timestamp;pressure;altitude;pressure_sealevel;temperature;humidity
70248;BME280;57641;51.416;5.506;2023-03-21T00:01:13;101815.34;;;14.69;59.56
70248;BME280;57641;51.416;5.506;2023-03-21T00:03:39;101809.66;;;14.72;59.13
70248;BME280;57641;51.416;5.506;2023-03-21T00:06:11;101807.59;;;14.66;59.68
70248;BME280;57641;51.416;5.506;2023-03-21T00:08:37;101808.09;;;14.44;60.37
70248;BME280;57641;51.416;5.506;2023-03-21T00:11:07;101803.09;;;14.49;60.45
70248;BME280;57641;51.416;5.506;2023-03-21T00:13:33;101804.03;;;14.58;60.27
70248;BME280;57641;51.416;5.506;2023-03-21T00:16:08;101801.78;;;14.35;61.22
70248;BME280;57641;51.416;5.506;2023-03-21T00:18:35;101785.84;;;14.52;61.09
70248;BME280;57641;51.416;5.506;2023-03-21T00:21:03;101799.41;;;14.50;60.75
70248;BME280;57641;51.416;5.506;2023-03-21T00:23:30;101796.81;;;14.58;60.77
70248;BME280;57641;51.416;5.506;2023-03-21T00:25:57;101784.38;;;14.57;60.62
70248;BME280;57641;51.416;5.506;2023-03-21T00:28:23;101782.38;;;14.59;60.41
70248;BME280;57641;51.416;5.506;2023-03-21T00:30:49;101775.88;;;14.62;60.84
70248;BME280;57641;51.416;5.506;2023-03-21T00:33:15;101777.06;;;14.67;60.47
70248;BME280;57641;51.416;5.506;2023-03-21T00:35:45;101775.59;;;14.73;60.10
70248;BME280;57641;51.416;5.506;2023-03-21T00:38:18;101769.63;;;14.79;60.05
70248;BME280;57641;51.416;5.506;2023-03-21T00:40:43;101766.94;;;14.79;59.36
70248;BME280;57641;51.416;5.506;2023-03-21T00:43:09;101769.91;;;14.76;59.82
70248;BME280;57641;51.416;5.506;2023-03-21T00:45:49;101765.81;;;14.64;60.02
70248;BME280;57641;51.416;5.506;2023-03-21T00:48:16;101761.81;;;14.68;60.11
70248;BME280;57641;51.416;5.506;2023-03-21T00:50:45;101752.81;;;14.77;60.14
70248;BME280;57641;51.416;5.506;2023-03-21T00:53:13;101751.47;;;14.81;59.83
70248;BME280;57641;51.416;5.506;2023-03-21T00:55:39;101757.91;;;14.88;59.43
70248;BME280;57641;51.416;5.506;2023-03-21T00:58:05;101743.78;;;14.86;59.33
70248;BME280;57641;51.416;5.506;2023-03-21T01:00:31;101747.31;;;14.87;59.34
70248;BME280;57641;51.416;5.506;2023-03-21T01:02:58;101739.97;;;14.89;58.93
70248;BME280;57641;51.416;5.506;2023-03-21T01:05:32;101730.94;;;14.98;59.04
70248;BME280;57641;51.416;5.506;2023-03-21T01:08:17;101728.94;;;15.00;59.26
70248;BME280;57641;51.416;5.506;2023-03-21T01:10:46;101730.16;;;15.05;58.78
70248;BME280;57641;51.416;5.506;2023-03-21T01:13:14;101729.97;;;15.07;58.78
70248;BME280;57641;51.416;5.506;2023-03-21T01:15:49;101734.19;;;15.09;58.41
70248;BME280;57641;51.416;5.506;2023-03-21T01:18:17;101727.66;;;15.12;58.61
70248;BME280;57641;51.416;5.506;2023-03-21T01:20:43;101730.16;;;15.13;58.57
70248;BME280;57641;51.416;5.506;2023-03-21T01:23:11;101725.50;;;15.15;58.37
70248;BME280;57641;51.416;5.506;2023-03-21T01:25:40;101723.66;;;15.16;58.04
70248;BME280;57641;51.416;5.506;2023-03-21T01:28:06;101717.59;;;15.14;58.33
70248;BME280;57641;51.416;5.506;2023-03-21T01:30:33;101706.19;;;15.12;58.43
70248;BME280;57641;51.416;5.506;2023-03-21T01:32:58;101709.53;;;15.14;58.13
70248;BME280;57641;51.416;5.506;2023-03-21T01:35:25;101704.50;;;15.11;58.21
70248;BME280;57641;51.416;5.506;2023-03-21T01:37:50;101698.78;;;15.14;58.47
70248;BME280;57641;51.416;5.506;2023-03-21T01:40:24;101697.63;;;15.16;58.27
70248;BME280;57641;51.416;5.506;2023-03-21T01:42:53;101694.94;;;15.16;58.31
70248;BME280;57641;51.416;5.506;2023-03-21T01:48:23;101691.72;;;15.13;58.33
70248;BME280;57641;51.416;5.506;2023-03-21T01:50:50;101695.59;;;15.10;58.33
70248;BME280;57641;51.416;5.506;2023-03-21T01:53:18;101697.59;;;15.08;57.85
70248;BME280;57641;51.416;5.506;2023-03-21T01:55:47;101699.28;;;15.09;58.18
70248;BME280;57641;51.416;5.506;2023-03-21T01:58:16;101690.88;;;15.12;57.93
70248;BME280;57641;51.416;5.506;2023-03-21T02:00:45;101688.03;;;15.14;58.31
70248;BME280;57641;51.416;5.506;2023-03-21T02:03:12;101685.00;;;15.09;57.72
70248;BME280;57641;51.416;5.506;2023-03-21T02:06:04;101690.72;;;15.06;57.76
70248;BME280;57641;51.416;5.506;2023-03-21T02:08:32;101678.41;;;14.95;58.07
70248;BME280;57641;51.416;5.506;2023-03-21T02:10:58;101677.41;;;14.96;58.25
70248;BME280;57641;51.416;5.506;2023-03-21T02:13:26;101675.72;;;14.95;57.92
70248;BME280;57641;51.416;5.506;2023-03-21T02:27:36;101658.63;;;14.96;58.16
70248;BME280;57641;51.416;5.506;2023-03-21T02:40:52;101642.50;;;14.96;57.73
70248;BME280;57641;51.416;5.506;2023-03-21T02:48:43;101635.94;;;14.91;58.12
70248;BME280;57641;51.416;5.506;2023-03-21T02:51:12;101636.53;;;14.76;58.16
70248;BME280;57641;51.416;5.506;2023-03-21T02:53:42;101635.38;;;14.79;58.25
70248;BME280;57641;51.416;5.506;2023-03-21T02:56:10;101635.53;;;14.77;58.48
70248;BME280;57641;51.416;5.506;2023-03-21T02:58:37;101631.53;;;14.82;58.39
70248;BME280;57641;51.416;5.506;2023-03-21T03:01:04;101630.03;;;14.87;58.60
70248;BME280;57641;51.416;5.506;2023-03-21T03:03:34;101627.19;;;14.89;58.57
70248;BME280;57641;51.416;5.506;2023-03-21T03:06:08;101627.22;;;14.97;58.71
70248;BME280;57641;51.416;5.506;2023-03-21T03:08:54;101621.66;;;14.90;58.52
70248;BME280;57641;51.416;5.506;2023-03-21T03:11:52;101627.69;;;14.92;58.75
70248;BME280;57641;51.416;5.506;2023-03-21T03:17:16;101626.78;;;14.75;59.32
70248;BME280;57641;51.416;5.506;2023-03-21T03:19:57;101622.91;;;14.70;59.71
70248;BME280;57641;51.416;5.506;2023-03-21T03:22:42;101621.41;;;14.75;59.90
70248;BME280;57641;51.416;5.506;2023-03-21T03:25:20;101616.06;;;14.75;60.25
70248;BME280;57641;51.416;5.506;2023-03-21T03:27:49;101607.84;;;14.77;60.66
70248;BME280;57641;51.416;5.506;2023-03-21T03:30:17;101605.00;;;14.78;60.55
70248;BME280;57641;51.416;5.506;2023-03-21T03:32:54;101607.34;;;14.82;60.51
70248;BME280;57641;51.416;5.506;2023-03-21T03:35:22;101607.19;;;14.83;60.44
70248;BME280;57641;51.416;5.506;2023-03-21T03:37:53;101604.84;;;14.80;60.63
70248;BME280;57641;51.416;5.506;2023-03-21T03:40:44;101605.38;;;14.84;60.14
70248;BME280;57641;51.416;5.506;2023-03-21T03:43:15;101610.19;;;14.72;60.42
70248;BME280;57641;51.416;5.506;2023-03-21T03:45:48;101603.13;;;14.71;60.20
70248;BME280;57641;51.416;5.506;2023-03-21T03:48:25;101594.72;;;14.66;60.73
70248;BME280;57641;51.416;5.506;2023-03-21T03:51:23;101597.72;;;14.63;61.13
70248;BME280;57641;51.416;5.506;2023-03-21T03:53:57;101602.09;;;14.64;61.15
70248;BME280;57641;51.416;5.506;2023-03-21T03:56:25;101591.38;;;14.64;61.21
70248;BME280;57641;51.416;5.506;2023-03-21T03:58:52;101600.78;;;14.68;61.17
70248;BME280;57641;51.416;5.506;2023-03-21T04:01:20;101601.44;;;14.70;61.26
70248;BME280;57641;51.416;5.506;2023-03-21T04:03:47;101600.97;;;14.74;61.49
70248;BME280;57641;51.416;5.506;2023-03-21T04:06:17;101596.75;;;14.72;61.01
70248;BME280;57641;51.416;5.506;2023-03-21T04:08:43;101592.56;;;14.69;60.97
70248;BME280;57641;51.416;5.506;2023-03-21T04:11:11;101594.91;;;14.72;61.03
70248;BME280;57641;51.416;5.506;2023-03-21T04:13:37;101586.72;;;14.74;61.02
70248;BME280;57641;51.416;5.506;2023-03-21T04:16:06;101584.88;;;14.74;60.85
70248;BME280;57641;51.416;5.506;2023-03-21T04:18:33;101585.53;;;14.76;61.05
70248;BME280;57641;51.416;5.506;2023-03-21T04:20:59;101585.53;;;14.76;61.53
70248;BME280;57641;51.416;5.506;2023-03-21T04:23:24;101580.00;;;14.78;60.50
70248;BME280;57641;51.416;5.506;2023-03-21T04:25:50;101583.69;;;14.77;60.92
70248;BME280;57641;51.416;5.506;2023-03-21T04:28:16;101585.38;;;14.78;60.90
70248;BME280;57641;51.416;5.506;2023-03-21T04:30:41;101580.16;;;14.76;60.50
70248;BME280;57641;51.416;5.506;2023-03-21T04:33:10;101569.28;;;14.78;60.94
70248;BME280;57641;51.416;5.506;2023-03-21T04:35:36;101571.94;;;14.78;60.69
70248;BME280;57641;51.416;5.506;2023-03-21T04:38:02;101560.38;;;14.77;60.54
70248;BME280;57641;51.416;5.506;2023-03-21T04:40:29;101560.53;;;14.76;60.62
70248;BME280;57641;51.416;5.506;2023-03-21T04:42:54;101564.91;;;14.77;60.59
70248;BME280;57641;51.416;5.506;2023-03-21T04:45:21;101563.22;;;14.76;60.63
70248;BME280;57641;51.416;5.506;2023-03-21T04:47:47;101559.69;;;14.75;60.85
70248;BME280;57641;51.416;5.506;2023-03-21T04:50:12;101559.53;;;14.77;60.62
70248;BME280;57641;51.416;5.506;2023-03-21T04:52:38;101558.03;;;14.74;60.65
70248;BME280;57641;51.416;5.506;2023-03-21T04:55:07;101547.09;;;14.76;60.68
70248;BME280;57641;51.416;5.506;2023-03-21T04:57:36;101554.00;;;14.78;60.63
70248;BME280;57641;51.416;5.506;2023-03-21T05:00:04;101538.75;;;14.79;60.52
70248;BME280;57641;51.416;5.506;2023-03-21T05:02:33;101540.91;;;14.75;60.24
70248;BME280;57641;51.416;5.506;2023-03-21T05:04:59;101538.22;;;14.75;60.40
70248;BME280;57641;51.416;5.506;2023-03-21T05:07:24;101545.94;;;14.78;60.18
70248;BME280;57641;51.416;5.506;2023-03-21T05:09:51;101542.44;;;14.78;60.31
70248;BME280;57641;51.416;5.506;2023-03-21T05:12:16;101548.44;;;14.72;59.79
70248;BME280;57641;51.416;5.506;2023-03-21T05:14:44;101548.88;;;14.59;60.09
70248;BME280;57641;51.416;5.506;2023-03-21T05:17:09;101540.34;;;14.56;60.62
70248;BME280;57641;51.416;5.506;2023-03-21T05:19:35;101544.06;;;14.63;60.77
70248;BME280;57641;51.416;5.506;2023-03-21T05:22:06;101543.41;;;14.69;60.62
70248;BME280;57641;51.416;5.506;2023-03-21T05:24:33;101536.22;;;14.69;60.80
70248;BME280;57641;51.416;5.506;2023-03-21T05:27:00;101544.75;;;14.73;60.74
70248;BME280;57641;51.416;5.506;2023-03-21T05:29:27;101544.41;;;14.76;60.56
70248;BME280;57641;51.416;5.506;2023-03-21T05:31:53;101544.28;;;14.77;60.64
70248;BME280;57641;51.416;5.506;2023-03-21T05:34:22;101541.59;;;14.77;60.31
70248;BME280;57641;51.416;5.506;2023-03-21T05:36:47;101538.75;;;14.79;60.60
70248;BME280;57641;51.416;5.506;2023-03-21T05:39:13;101535.06;;;14.80;60.51
70248;BME280;57641;51.416;5.506;2023-03-21T05:41:38;101541.25;;;14.80;60.60
70248;BME280;57641;51.416;5.506;2023-03-21T05:44:04;101532.03;;;14.83;60.49
70248;BME280;57641;51.416;5.506;2023-03-21T05:46:30;101534.72;;;14.83;60.55
70248;BME280;57641;51.416;5.506;2023-03-21T05:48:55;101530.19;;;14.84;60.45
70248;BME280;57641;51.416;5.506;2023-03-21T05:51:20;101530.69;;;14.87;60.23
70248;BME280;57641;51.416;5.506;2023-03-21T05:53:46;101535.22;;;14.87;60.29
70248;BME280;57641;51.416;5.506;2023-03-21T05:56:13;101536.06;;;14.87;60.35
70248;BME280;57641;51.416;5.506;2023-03-21T05:58:38;101533.38;;;14.87;60.31
70248;BME280;57641;51.416;5.506;2023-03-21T06:01:04;101538.25;;;14.92;60.14
70248;BME280;57641;51.416;5.506;2023-03-21T06:03:30;101530.38;;;14.90;60.26
70248;BME280;57641;51.416;5.506;2023-03-21T06:05:56;101534.56;;;14.93;59.73
70248;BME280;57641;51.416;5.506;2023-03-21T06:08:22;101538.94;;;14.94;60.22
70248;BME280;57641;51.416;5.506;2023-03-21T06:10:47;101538.44;;;14.90;60.17
70248;BME280;57641;51.416;5.506;2023-03-21T06:13:12;101535.41;;;14.93;60.28
70248;BME280;57641;51.416;5.506;2023-03-21T06:15:38;101545.00;;;14.96;60.19
70248;BME280;57641;51.416;5.506;2023-03-21T06:18:04;101545.16;;;14.94;60.30
70248;BME280;57641;51.416;5.506;2023-03-21T06:20:33;101540.78;;;14.93;60.00
70248;BME280;57641;51.416;5.506;2023-03-21T06:22:59;101543.97;;;14.97;60.17
70248;BME280;57641;51.416;5.506;2023-03-21T06:25:24;101546.84;;;14.95;60.14
70248;BME280;57641;51.416;5.506;2023-03-21T06:27:52;101538.59;;;14.97;60.34
70248;BME280;57641;51.416;5.506;2023-03-21T06:30:19;101543.16;;;14.96;60.67
70248;BME280;57641;51.416;5.506;2023-03-21T06:32:44;101545.84;;;14.96;60.27
70248;BME280;57641;51.416;5.506;2023-03-21T06:35:10;101550.03;;;14.99;60.21
70248;BME280;57641;51.416;5.506;2023-03-21T06:37:35;101548.69;;;14.95;59.85
70248;BME280;57641;51.416;5.506;2023-03-21T06:40:02;101548.88;;;15.01;59.90
70248;BME280;57641;51.416;5.506;2023-03-21T06:42:29;101549.88;;;15.00;59.82
70248;BME280;57641;51.416;5.506;2023-03-21T06:44:57;101552.56;;;15.00;60.11
70248;BME280;57641;51.416;5.506;2023-03-21T06:47:23;101553.41;;;15.01;60.30
70248;BME280;57641;51.416;5.506;2023-03-21T06:49:48;101553.06;;;15.04;60.48
70248;BME280;57641;51.416;5.506;2023-03-21T06:52:14;101549.88;;;15.08;60.55
70248;BME280;57641;51.416;5.506;2023-03-21T06:54:39;101560.28;;;15.11;60.55
70248;BME280;57641;51.416;5.506;2023-03-21T06:57:05;101554.94;;;15.11;60.83
70248;BME280;57641;51.416;5.506;2023-03-21T06:59:30;101552.72;;;15.07;60.52
70248;BME280;57641;51.416;5.506;2023-03-21T07:01:56;101545.50;;;15.07;60.35
70248;BME280;57641;51.416;5.506;2023-03-21T07:04:25;101553.75;;;15.14;60.84
70248;BME280;57641;51.416;5.506;2023-03-21T07:06:51;101549.88;;;15.08;61.03
70248;BME280;57641;51.416;5.506;2023-03-21T07:09:16;101562.13;;;15.11;60.53
70248;BME280;57641;51.416;5.506;2023-03-21T07:11:43;101562.47;;;15.16;59.89
70248;BME280;57641;51.416;5.506;2023-03-21T07:14:08;101564.13;;;15.01;60.41
70248;BME280;57641;51.416;5.506;2023-03-21T07:16:34;101564.28;;;14.99;60.59
70248;BME280;57641;51.416;5.506;2023-03-21T07:18:59;101557.38;;;14.97;60.58
70248;BME280;57641;51.416;5.506;2023-03-21T07:21:25;101564.78;;;14.95;60.98
70248;BME280;57641;51.416;5.506;2023-03-21T07:23:50;101572.16;;;14.93;61.08
70248;BME280;57641;51.416;5.506;2023-03-21T07:26:16;101575.84;;;14.92;61.19
70248;BME280;57641;51.416;5.506;2023-03-21T07:28:43;101576.03;;;14.90;61.35
70248;BME280;57641;51.416;5.506;2023-03-21T07:31:15;101578.72;;;14.90;61.33
70248;BME280;57641;51.416;5.506;2023-03-21T07:33:41;101588.41;;;14.91;61.59
70248;BME280;57641;51.416;5.506;2023-03-21T07:36:14;101574.19;;;14.91;61.67
70248;BME280;57641;51.416;5.506;2023-03-21T07:38:42;101577.19;;;14.88;61.64
70248;BME280;57641;51.416;5.506;2023-03-21T07:41:11;101578.19;;;14.87;61.99
70248;BME280;57641;51.416;5.506;2023-03-21T07:43:37;101578.03;;;14.88;62.30
70248;BME280;57641;51.416;5.506;2023-03-21T07:46:07;101577.81;;;14.82;62.49
70248;BME280;57641;51.416;5.506;2023-03-21T07:48:32;101572.66;;;14.80;62.71
70248;BME280;57641;51.416;5.506;2023-03-21T07:50:58;101571.63;;;14.81;62.94
70248;BME280;57641;51.416;5.506;2023-03-21T07:53:24;101573.50;;;14.89;62.84
70248;BME280;57641;51.416;5.506;2023-03-21T07:55:55;101567.47;;;14.95;62.81
70248;BME280;57641;51.416;5.506;2023-03-21T07:58:24;101570.84;;;15.05;63.36
70248;BME280;57641;51.416;5.506;2023-03-21T08:00:50;101569.00;;;15.05;62.96
70248;BME280;57641;51.416;5.506;2023-03-21T08:03:16;101555.25;;;15.08;62.70
70248;BME280;57641;51.416;5.506;2023-03-21T08:05:42;101553.75;;;15.14;63.05
70248;BME280;57641;51.416;5.506;2023-03-21T08:08:11;101540.81;;;15.17;63.09
70248;BME280;57641;51.416;5.506;2023-03-21T08:10:37;101540.66;;;15.19;63.23
70248;BME280;57641;51.416;5.506;2023-03-21T08:13:04;101533.28;;;15.21;62.98
70248;BME280;57641;51.416;5.506;2023-03-21T08:15:29;101531.44;;;15.21;62.44
70248;BME280;57641;51.416;5.506;2023-03-21T08:17:58;101529.06;;;15.18;62.42
70248;BME280;57641;51.416;5.506;2023-03-21T08:20:24;101527.38;;;15.17;62.59
70248;BME280;57641;51.416;5.506;2023-03-21T08:22:49;101520.16;;;15.18;62.68
70248;BME280;57641;51.416;5.506;2023-03-21T08:25:17;101524.03;;;15.15;62.70
70248;BME280;57641;51.416;5.506;2023-03-21T08:27:44;101524.03;;;15.15;62.33
70248;BME280;57641;51.416;5.506;2023-03-21T08:30:13;101514.09;;;15.08;62.86
70248;BME280;57641;51.416;5.506;2023-03-21T08:32:40;101501.53;;;15.08;62.45
70248;BME280;57641;51.416;5.506;2023-03-21T08:35:08;101509.06;;;15.13;63.06
70248;BME280;57641;51.416;5.506;2023-03-21T08:37:38;101510.44;;;15.09;63.28
70248;BME280;57641;51.416;5.506;2023-03-21T08:40:06;101496.00;;;15.10;63.52
70248;BME280;57641;51.416;5.506;2023-03-21T08:42:33;101497.50;;;15.12;63.43
70248;BME280;57641;51.416;5.506;2023-03-21T08:44:59;101502.06;;;15.12;63.32
70248;BME280;57641;51.416;5.506;2023-03-21T08:47:25;101503.19;;;15.17;63.63
70248;BME280;57641;51.416;5.506;2023-03-21T08:49:50;101503.19;;;15.17;63.73
70248;BME280;57641;51.416;5.506;2023-03-21T08:52:16;101497.66;;;15.19;63.37
70248;BME280;57641;51.416;5.506;2023-03-21T08:54:41;101503.38;;;15.24;63.65
70248;BME280;57641;51.416;5.506;2023-03-21T08:57:08;101497.00;;;15.25;63.43
70248;BME280;57641;51.416;5.506;2023-03-21T08:59:35;101499.88;;;15.32;63.58
70248;BME280;57641;51.416;5.506;2023-03-21T09:02:00;101491.47;;;15.35;63.51
70248;BME280;57641;51.416;5.506;2023-03-21T09:04:26;101497.84;;;15.42;63.12
70248;BME280;57641;51.416;5.506;2023-03-21T09:06:51;101496.50;;;15.46;63.26
70248;BME280;57641;51.416;5.506;2023-03-21T09:09:17;101495.97;;;15.50;63.63
70248;BME280;57641;51.416;5.506;2023-03-21T09:11:43;101488.81;;;15.59;63.38
70248;BME280;57641;51.416;5.506;2023-03-21T09:14:08;101493.81;;;15.62;63.65
70248;BME280;57641;51.416;5.506;2023-03-21T09:16:37;101492.47;;;15.66;63.76
70248;BME280;57641;51.416;5.506;2023-03-21T09:19:03;101487.28;;;15.65;63.44
70248;BME280;57641;51.416;5.506;2023-03-21T09:21:33;101480.72;;;15.67;63.71
70248;BME280;57641;51.416;5.506;2023-03-21T09:24:01;101482.72;;;15.73;63.43
70248;BME280;57641;51.416;5.506;2023-03-21T09:26:27;101476.34;;;15.74;63.15
70248;BME280;57641;51.416;5.506;2023-03-21T09:28:55;101477.66;;;15.78;62.88
70248;BME280;57641;51.416;5.506;2023-03-21T09:31:23;101478.50;;;15.79;62.92
70248;BME280;57641;51.416;5.506;2023-03-21T09:33:53;101479.00;;;15.82;62.76
70248;BME280;57641;51.416;5.506;2023-03-21T09:36:20;101468.06;;;15.84;62.91
70248;BME280;57641;51.416;5.506;2023-03-21T09:38:50;101471.13;;;15.73;62.34
70248;BME280;57641;51.416;5.506;2023-03-21T09:41:31;101474.28;;;15.84;62.94
70248;BME280;57641;51.416;5.506;2023-03-21T09:44:09;101480.00;;;15.89;62.89
70248;BME280;57641;51.416;5.506;2023-03-21T09:46:47;101469.56;;;15.86;61.97
70248;BME280;57641;51.416;5.506;2023-03-21T09:49:19;101463.16;;;15.95;62.46
70248;BME280;57641;51.416;5.506;2023-03-21T09:51:48;101459.25;;;16.06;61.96
70248;BME280;57641;51.416;5.506;2023-03-21T09:54:21;101462.44;;;16.10;62.11
70248;BME280;57641;51.416;5.506;2023-03-21T09:56:52;101453.66;;;16.16;61.63
70248;BME280;57641;51.416;5.506;2023-03-21T09:59:37;101450.50;;;16.04;61.71
70248;BME280;57641;51.416;5.506;2023-03-21T10:05:02;101461.16;;;15.89;61.50
70248;BME280;57641;51.416;5.506;2023-03-21T10:07:39;101436.59;;;15.92;62.14
70248;BME280;57641;51.416;5.506;2023-03-21T10:10:14;101431.34;;;16.07;61.41
70248;BME280;57641;51.416;5.506;2023-03-21T10:12:45;101433.53;;;16.03;61.28
70248;BME280;57641;51.416;5.506;2023-03-21T10:15:16;101438.22;;;16.10;61.15
70248;BME280;57641;51.416;5.506;2023-03-21T10:18:02;101433.91;;;16.00;60.50
70248;BME280;57641;51.416;5.506;2023-03-21T10:20:32;101427.31;;;16.03;60.42
70248;BME280;57641;51.416;5.506;2023-03-21T10:23:00;101427.88;;;15.90;60.33
70248;BME280;57641;51.416;5.506;2023-03-21T10:25:37;101426.47;;;16.02;60.45
70248;BME280;57641;51.416;5.506;2023-03-21T10:28:10;101428.66;;;16.07;60.93
70248;BME280;57641;51.416;5.506;2023-03-21T10:30:53;101431.53;;;16.05;60.02
70248;BME280;57641;51.416;5.506;2023-03-21T10:33:23;101429.31;;;16.09;60.18
70248;BME280;57641;51.416;5.506;2023-03-21T10:35:54;101421.72;;;16.13;60.13
70248;BME280;57641;51.416;5.506;2023-03-21T10:38:23;101426.47;;;16.11;58.70
70248;BME280;57641;51.416;5.506;2023-03-21T10:40:49;101420.19;;;16.18;59.12
70248;BME280;57641;51.416;5.506;2023-03-21T10:45:54;101423.31;;;16.30;58.52
70248;BME280;57641;51.416;5.506;2023-03-21T10:48:22;101420.06;;;16.42;58.76
70248;BME280;57641;51.416;5.506;2023-03-21T10:50:50;101413.47;;;16.45;58.36
70248;BME280;57641;51.416;5.506;2023-03-21T10:53:29;101423.72;;;16.19;58.08
70248;BME280;57641;51.416;5.506;2023-03-21T10:55:58;101426.22;;;16.28;57.43
70248;BME280;57641;51.416;5.506;2023-03-21T10:58:28;101429.69;;;16.37;57.14
70248;BME280;57641;51.416;5.506;2023-03-21T11:01:02;101412.31;;;16.17;56.69
70248;BME280;57641;51.416;5.506;2023-03-21T11:03:35;101419.47;;;16.24;55.61
70248;BME280;57641;51.416;5.506;2023-03-21T11:08:38;101411.91;;;16.28;55.06
70248;BME280;57641;51.416;5.506;2023-03-21T11:11:08;101406.63;;;16.03;55.07
70248;BME280;57641;51.416;5.506;2023-03-21T11:13:42;101415.63;;;16.27;54.38
70248;BME280;57641;51.416;5.506;2023-03-21T11:16:39;101410.72;;;16.30;54.59
70248;BME280;57641;51.416;5.506;2023-03-21T11:19:17;101415.63;;;16.19;54.19
70248;BME280;57641;51.416;5.506;2023-03-21T11:21:44;101410.63;;;16.46;55.06
70248;BME280;57641;51.416;5.506;2023-03-21T11:24:16;101398.25;;;16.60;54.73
70248;BME280;57641;51.416;5.506;2023-03-21T11:26:45;101410.72;;;16.61;53.27
70248;BME280;57641;51.416;5.506;2023-03-21T11:29:34;101411.56;;;16.84;53.41
70248;BME280;57641;51.416;5.506;2023-03-21T11:32:19;101407.59;;;16.72;53.30
70248;BME280;57641;51.416;5.506;2023-03-21T11:35:04;101408.19;;;16.82;53.37
70248;BME280;57641;51.416;5.506;2023-03-21T11:37:32;101407.47;;;16.66;53.13
70248;BME280;57641;51.416;5.506;2023-03-21T11:40:31;101395.81;;;16.96;52.76
70248;BME280;57641;51.416;5.506;2023-03-21T11:45:29;101402.69;;;16.99;52.30
70248;BME280;57641;51.416;5.506;2023-03-21T11:47:57;101403.94;;;16.88;51.20
70248;BME280;57641;51.416;5.506;2023-03-21T11:50:35;101407.13;;;16.92;50.66
70248;BME280;57641;51.416;5.506;2023-03-21T11:53:15;101398.97;;;17.00;51.10
70248;BME280;57641;51.416;5.506;2023-03-21T11:56:14;101403.25;;;17.09;50.90
70248;BME280;57641;51.416;5.506;2023-03-21T12:06:36;101382.34;;;16.96;50.32
70248;BME280;57641;51.416;5.506;2023-03-21T12:15:02;101379.91;;;17.39;49.45
70248;BME280;57641;51.416;5.506;2023-03-21T12:17:36;101366.56;;;17.60;49.79
70248;BME280;57641;51.416;5.506;2023-03-21T12:28:10;101340.13;;;17.55;47.91
70248;BME280;57641;51.416;5.506;2023-03-21T12:44:58;101341.59;;;17.58;47.41
70248;BME280;57641;51.416;5.506;2023-03-21T12:47:29;101331.22;;;17.69;47.08
70248;BME280;57641;51.416;5.506;2023-03-21T12:50:19;101329.59;;;17.46;47.87
70248;BME280;57641;51.416;5.506;2023-03-21T12:52:55;101326.16;;;17.52;48.31
70248;BME280;57641;51.416;5.506;2023-03-21T12:55:29;101326.19;;;17.66;47.07
70248;BME280;57641;51.416;5.506;2023-03-21T12:58:03;101332.84;;;17.56;47.68
70248;BME280;57641;51.416;5.506;2023-03-21T13:00:44;101318.28;;;17.65;47.59
70248;BME280;57641;51.416;5.506;2023-03-21T13:03:29;101315.50;;;17.44;47.83
70248;BME280;57641;51.416;5.506;2023-03-21T13:05:59;101309.53;;;17.48;47.60
70248;BME280;57641;51.416;5.506;2023-03-21T13:08:45;101312.81;;;17.44;48.79
70248;BME280;57641;51.416;5.506;2023-03-21T13:11:19;101311.66;;;17.53;47.86
70248;BME280;57641;51.416;5.506;2023-03-21T13:13:52;101306.75;;;17.42;48.18
70248;BME280;57641;51.416;5.506;2023-03-21T13:16:27;101300.81;;;17.61;48.46
70248;BME280;57641;51.416;5.506;2023-03-21T13:27:29;101306.53;;;18.23;47.27
70248;BME280;57641;51.416;5.506;2023-03-21T13:30:27;101290.31;;;18.23;46.58
70248;BME280;57641;51.416;5.506;2023-03-21T13:33:07;101297.00;;;18.06;46.99
70248;BME280;57641;51.416;5.506;2023-03-21T13:35:38;101291.34;;;18.01;46.80
70248;BME280;57641;51.416;5.506;2023-03-21T13:38:24;101285.88;;;18.15;46.73
70248;BME280;57641;51.416;5.506;2023-03-21T13:40:58;101292.78;;;18.18;46.59
70248;BME280;57641;51.416;5.506;2023-03-21T13:56:55;101269.09;;;18.20;45.75
70248;BME280;57641;51.416;5.506;2023-03-21T14:04:30;101253.41;;;18.51;45.49
70248;BME280;57641;51.416;5.506;2023-03-21T14:07:15;101254.56;;;18.64;45.11
70248;BME280;57641;51.416;5.506;2023-03-21T14:09:51;101250.34;;;18.54;44.71
70248;BME280;57641;51.416;5.506;2023-03-21T14:12:38;101251.94;;;18.70;44.32
70248;BME280;57641;51.416;5.506;2023-03-21T14:15:25;101238.38;;;18.42;44.73
70248;BME280;57641;51.416;5.506;2023-03-21T14:17:59;101227.81;;;18.47;45.10
70248;BME280;57641;51.416;5.506;2023-03-21T14:20:33;101230.25;;;18.64;44.44
70248;BME280;57641;51.416;5.506;2023-03-21T14:23:06;101233.38;;;18.39;45.07
70248;BME280;57641;51.416;5.506;2023-03-21T14:25:35;101241.66;;;18.38;45.21
70248;BME280;57641;51.416;5.506;2023-03-21T14:28:04;101243.19;;;18.47;45.59
70248;BME280;57641;51.416;5.506;2023-03-21T14:30:38;101240.09;;;18.71;45.64
70248;BME280;57641;51.416;5.506;2023-03-21T14:33:37;101239.25;;;18.71;45.30
70248;BME280;57641;51.416;5.506;2023-03-21T14:36:12;101232.31;;;18.62;45.81
70248;BME280;57641;51.416;5.506;2023-03-21T14:38:41;101237.28;;;18.58;46.12
70248;BME280;57641;51.416;5.506;2023-03-21T14:41:23;101229.44;;;18.63;45.92
70248;BME280;57641;51.416;5.506;2023-03-21T14:46:40;101233.88;;;18.49;46.28
70248;BME280;57641;51.416;5.506;2023-03-21T14:49:26;101230.97;;;18.30;45.87
70248;BME280;57641;51.416;5.506;2023-03-21T14:51:55;101225.06;;;18.41;45.97
70248;BME280;57641;51.416;5.506;2023-03-21T14:54:21;101228.94;;;18.32;46.65
70248;BME280;57641;51.416;5.506;2023-03-21T14:56:50;101232.28;;;18.55;46.06